createdAt,value
2022-08-21T00:06:50.040Z,19.3
2022-08-21T00:37:40.762Z,19.1
2022-08-21T01:08:42.902Z,18.8
2022-08-21T01:47:42.012Z,18.4
2022-08-21T02:18:55.615Z,18
2022-08-21T02:34:26.769Z,17.9
2022-08-21T02:57:20.892Z,17.7
2022-08-21T03:36:08.853Z,17.4
2022-08-21T03:52:02.663Z,17.3
2022-08-21T04:30:39.431Z,16.9
2022-08-21T04:53:56.290Z,16.8
2022-08-21T05:17:13.126Z,16.6
2022-08-21T05:56:01.062Z,16.6
2022-08-21T06:11:43.539Z,16.6
2022-08-21T06:42:45.753Z,16.7
2022-08-21T07:05:51.026Z,16.9
2022-08-21T07:44:26.942Z,17.5
2022-08-21T07:52:34.972Z,17.7
2022-08-21T08:23:25.423Z,18.1
2022-08-21T08:46:52.965Z,18.5
2022-08-21T09:25:17.399Z,19
2022-08-21T09:56:18.939Z,19.3
2022-08-21T10:19:46.349Z,19.6
2022-08-21T10:42:51.101Z,19.9
2022-08-21T11:21:37.837Z,20.3
2022-08-21T11:37:31.104Z,20.5
2022-08-21T12:08:20.999Z,20.9
2022-08-21T12:54:41.124Z,21.7
2022-08-21T13:25:41.609Z,22.7
2022-08-21T13:41:11.473Z,23.5
2022-08-21T14:20:17.201Z,27
2022-08-21T14:35:23.156Z,28.9
2022-08-21T15:21:49.301Z,33.3
2022-08-21T15:52:59.994Z,33
2022-08-21T16:16:26.095Z,32.5
2022-08-21T16:39:40.341Z,32.6
2022-08-21T17:02:43.554Z,32.6
2022-08-21T17:25:47.328Z,31.8
2022-08-21T17:56:59.051Z,30.6
2022-08-21T18:35:45.151Z,28.7
2022-08-21T18:51:04.417Z,28
2022-08-21T19:29:51.087Z,26.2
2022-08-21T19:53:29.708Z,25.4
2022-08-21T20:08:49.099Z,24.9
2022-08-21T20:47:35.950Z,23.7
2022-08-21T21:10:52.188Z,23.1
2022-08-21T21:34:19.694Z,22.5
2022-08-21T22:05:10.014Z,21.9
2022-08-21T22:28:26.279Z,21.5
2022-08-21T22:59:28.103Z,21
2022-08-21T23:15:10.334Z,20.7
2022-08-21T23:53:46.279Z,20.2
